Terminal Aerodrome Forecast
Issued by NWS Mt. Holly, NJ

Home | Current Version | Previous Version | Text Only | Print | Product List | Glossary On
Versions: 1 2 3 4 5 6 7 8 9 10 11 12 13 14 15 16 17 18 19 20 21 22 23 24 25
327
FTUS41 KPHI 261126
TAFPHL
TAF
KPHL 261126Z 2612/2718 25005KT P6SM FEW250
     FM261400 22009KT P6SM SCT250
     FM270400 20003KT P6SM BKN100
      TEMPO 2710/2712 5SM BR
     FM271400 21005KT P6SM SCT050=

USA.gov is the U.S. government's official web portal to all federal, state and local government web resources and services.